Time;durP1;ratioP1;P1;durP2;ratioP2;P2;SDS_P1;SDS_P2;PMS_P1;PMS_P2;Temp;Humidity;BMP_temperature;BMP_pressure;BME280_temperature;BME280_humidity;BME280_pressure;Samples;Min_cycle;Max_cycle;Signal;HPM_P1;HPM_P2
2022/12/22 03:26:48;;;;;;;161.25;34.40;;;7.70;99.90;;;;;;5078026;28;20108;-79
2022/12/22 03:29:14;;;;;;;155.65;34.25;;;8.10;99.90;;;;;;5092796;28;20142;-79
2022/12/22 03:31:39;;;;;;;152.55;33.38;;;8.10;99.90;;;;;;5093174;28;20051;-79
2022/12/22 03:34:05;;;;;;;131.65;32.90;;;7.90;99.90;;;;;;5091927;28;20500;-79
2022/12/22 03:36:31;;;;;;;127.82;31.25;;;7.90;99.90;;;;;;5091493;28;20056;-79
2022/12/22 03:38:56;;;;;;;129.80;32.58;;;8.10;99.90;;;;;;5091194;28;20135;-79
2022/12/22 03:46:51;;;;;;;143.77;31.25;;;8.00;99.90;;;;;;5091894;28;20146;-79
2022/12/22 03:49:18;;;;;;;125.18;31.08;;;8.10;99.90;;;;;;5091513;28;20130;-79
2022/12/22 03:51:45;;;;;;;111.97;28.52;;;8.40;99.90;;;;;;5091596;28;20473;-79
2022/12/22 03:54:14;;;;;;;115.05;28.42;;;7.90;99.90;;;;;;5092465;28;20047;-79
2022/12/22 03:56:40;;;;;;;119.10;28.95;;;8.20;99.90;;;;;;5091565;28;20499;-78
2022/12/22 03:59:06;;;;;;;115.22;30.02;;;8.20;99.90;;;;;;5092656;28;20047;-79
2022/12/22 04:01:35;;;;;;;;;;;8.10;99.90;;;;;;5091917;28;20070;-78
2022/12/22 04:04:01;;;;;;;107.28;26.20;;;8.00;99.90;;;;;;5091531;28;20344;-78
2022/12/22 04:06:26;;;;;;;89.03;25.50;;;7.90;99.90;;;;;;5090471;28;20102;-78
2022/12/22 04:08:52;;;;;;;103.10;26.02;;;8.30;99.90;;;;;;5090949;28;20044;-78
2022/12/22 04:14:03;;;;;;;91.63;25.55;;;8.00;99.90;;;;;;5091492;28;20055;-77
2022/12/22 04:16:28;;;;;;;;;;;8.20;99.90;;;;;;5091833;28;20048;-78
2022/12/22 04:18:54;;;;;;;89.68;25.17;;;8.00;99.90;;;;;;5091310;28;19968;-77
2022/12/22 04:21:20;;;;;;;82.85;23.05;;;7.90;99.90;;;;;;5091744;28;20461;-77
2022/12/22 04:23:46;;;;;;;82.32;23.00;;;8.90;99.90;;;;;;5091196;28;20465;-77
2022/12/22 04:26:11;;;;;;;71.70;22.08;;;8.10;99.90;;;;;;5074438;28;20385;-77
2022/12/22 04:28:37;;;;;;;84.88;22.85;;;8.00;99.90;;;;;;5091860;28;20048;-77
2022/12/22 04:31:03;;;;;;;75.35;23.13;;;8.40;99.90;;;;;;5091954;28;20476;-77
2022/12/22 04:33:28;;;;;;;89.35;23.38;;;7.90;99.90;;;;;;5092268;28;20536;-77
2022/12/22 04:35:54;;;;;;;79.25;21.88;;;8.00;99.90;;;;;;5092115;28;20055;-77
2022/12/22 04:38:20;;;;;;;80.82;23.42;;;8.10;99.90;;;;;;5091085;28;20046;-77
2022/12/22 04:40:45;;;;;;;68.55;20.98;;;8.00;99.90;;;;;;5092095;28;20388;-77
2022/12/22 04:43:11;;;;;;;67.93;21.25;;;7.70;99.90;;;;;;5091696;28;20044;-77
2022/12/22 04:45:37;;;;;;;79.05;21.67;;;7.50;99.90;;;;;;5092009;28;20055;-77
2022/12/22 04:48:02;;;;;;;66.75;20.85;;;7.60;99.90;;;;;;5091724;28;20048;-77
2022/12/22 04:50:28;;;;;;;79.93;21.73;;;7.60;99.90;;;;;;5091798;28;20070;-77
2022/12/22 04:52:54;;;;;;;66.10;21.20;;;7.60;99.90;;;;;;5092229;28;20048;-77
2022/12/22 04:55:19;;;;;;;76.10;23.05;;;7.40;99.90;;;;;;5092107;28;20051;-76
2022/12/22 04:57:45;;;;;;;68.93;21.88;;;7.70;99.90;;;;;;5090969;28;20043;-77
2022/12/22 05:00:11;;;;;;;69.07;21.75;;;8.30;99.90;;;;;;5090670;28;20043;-76
2022/12/22 05:02:37;;;;;;;78.68;21.17;;;7.30;99.90;;;;;;5091835;28;20044;-76
2022/12/22 05:05:03;;;;;;;89.90;24.20;;;7.60;99.90;;;;;;5090403;28;20055;-76
2022/12/22 05:07:28;;;;;;;95.47;25.35;;;7.30;99.90;;;;;;5091927;28;20055;-76
2022/12/22 05:09:54;;;;;;;101.95;26.70;;;7.30;99.90;;;;;;5090472;28;20052;-76
2022/12/22 05:15:04;;;;;;;102.95;26.48;;;7.50;99.90;;;;;;5091843;28;20109;-75
2022/12/22 05:17:30;;;;;;;108.57;26.75;;;7.40;99.90;;;;;;5090794;28;20492;-76
2022/12/22 05:19:55;;;;;;;105.15;27.15;;;7.10;99.90;;;;;;5095523;28;20048;-76
2022/12/22 05:22:21;;;;;;;104.07;26.77;;;7.30;99.90;;;;;;5095691;28;20433;-76
2022/12/22 05:24:47;;;;;;;108.95;27.10;;;7.40;99.90;;;;;;5094607;28;20044;-76
2022/12/22 05:27:12;;;;;;;95.22;26.35;;;7.20;99.90;;;;;;5077694;28;20048;-76
2022/12/22 05:29:38;;;;;;;114.95;26.33;;;6.70;99.90;;;;;;5094095;28;20059;-76
2022/12/22 05:32:04;;;;;;;106.60;27.27;;;6.80;99.90;;;;;;5094297;28;20139;-77
2022/12/22 05:34:30;;;;;;;102.55;25.30;;;6.90;99.90;;;;;;5077289;28;20498;-77
2022/12/22 05:36:55;;;;;;;104.15;26.10;;;6.70;99.90;;;;;;5095435;28;20087;-76
2022/12/22 05:39:21;;;;;;;106.93;26.15;;;6.80;99.90;;;;;;5077525;28;20058;-77
2022/12/22 05:41:47;;;;;;;97.82;25.60;;;6.90;99.90;;;;;;5095350;28;20535;-76
2022/12/22 05:44:12;;;;;;;97.47;26.02;;;6.50;99.90;;;;;;5094037;28;20126;-77
2022/12/22 05:46:38;;;;;;;109.18;25.00;;;6.40;99.90;;;;;;5094231;28;20044;-76
2022/12/22 05:49:04;;;;;;;153.40;26.95;;;5.90;99.90;;;;;;5094809;28;20124;-77
2022/12/22 05:51:29;;;;;;;118.72;26.17;;;6.30;99.90;;;;;;5094097;28;20052;-77
2022/12/22 05:53:55;;;;;;;106.80;25.13;;;6.20;99.90;;;;;;5095090;28;20048;-77
2022/12/22 05:56:21;;;;;;;125.75;27.48;;;6.20;99.90;;;;;;5060567;28;20217;-76
2022/12/22 05:58:46;;;;;;;151.32;26.90;;;6.40;99.90;;;;;;5093963;28;20052;-76
2022/12/22 06:01:12;;;;;;;254.93;28.75;;;5.90;99.90;;;;;;5094967;28;20472;-76
2022/12/22 06:03:38;;;;;;;650.67;38.88;;;6.30;99.90;;;;;;5094682;28;20500;-77
2022/12/22 06:06:04;;;;;;;557.53;37.25;;;6.00;99.90;;;;;;5094539;28;20040;-77
2022/12/22 06:08:29;;;;;;;672.38;41.03;;;5.90;99.90;;;;;;5094848;28;20056;-77
2022/12/22 06:10:58;;;;;;;484.55;33.13;;;6.00;99.90;;;;;;5093385;28;20044;-77
2022/12/22 06:13:24;;;;;;;256.75;30.73;;;6.20;99.90;;;;;;5093171;28;20587;-77
2022/12/22 06:15:50;;;;;;;;;;;6.60;99.90;;;;;;5095111;28;20182;-77
2022/12/22 06:18:16;;;;;;;353.60;32.88;;;6.80;99.90;;;;;;5076474;28;19966;-76
2022/12/22 06:20:41;;;;;;;354.80;34.47;;;6.70;99.90;;;;;;5093520;28;20395;-76
2022/12/22 06:23:07;;;;;;;172.10;28.55;;;6.60;99.90;;;;;;5093398;28;20044;-76
2022/12/22 06:25:33;;;;;;;158.15;27.50;;;6.80;99.90;;;;;;5093423;28;20563;-76
2022/12/22 06:27:59;;;;;;;191.02;27.20;;;7.00;99.90;;;;;;5094372;28;20758;-76
2022/12/22 06:30:25;;;;;;;142.48;24.92;;;7.20;99.90;;;;;;5093339;28;20079;-77
2022/12/22 06:32:50;;;;;;;126.78;23.50;;;6.60;99.90;;;;;;5094089;28;20048;-76
2022/12/22 06:35:16;;;;;;;132.73;25.10;;;6.60;99.90;;;;;;5094325;28;20047;-76
2022/12/22 06:37:42;;;;;;;136.20;25.13;;;7.10;99.90;;;;;;5094314;28;20101;-77
2022/12/22 06:40:08;;;;;;;133.80;24.48;;;7.10;99.90;;;;;;5094272;28;20039;-77
2022/12/22 06:45:21;;;;;;;132.60;24.65;;;7.00;99.90;;;;;;5093391;28;20484;-77
2022/12/22 06:47:46;;;;;;;172.52;26.17;;;7.00;99.90;;;;;;5092977;28;20115;-78
2022/12/22 06:50:12;;;;;;;127.93;23.77;;;6.60;99.90;;;;;;5094236;28;20058;-78
2022/12/22 06:52:38;;;;;;;189.25;26.63;;;7.10;99.90;;;;;;5093085;28;20048;-78
2022/12/22 06:55:04;;;;;;;206.30;26.35;;;7.00;99.90;;;;;;5059549;28;20571;-78
2022/12/22 06:57:30;;;;;;;269.77;27.38;;;6.90;99.90;;;;;;5092660;28;20215;-77
2022/12/22 06:59:55;;;;;;;321.60;28.40;;;6.90;99.90;;;;;;5093830;28;20094;-77
2022/12/22 07:02:21;;;;;;;342.60;25.90;;;6.90;99.90;;;;;;5093580;28;20480;-77
2022/12/22 07:04:47;;;;;;;475.23;32.15;;;6.60;99.90;;;;;;5092791;28;20107;-78
2022/12/22 07:07:12;;;;;;;568.03;35.55;;;6.70;99.90;;;;;;5093727;28;20044;-77
2022/12/22 07:09:38;;;;;;;406.02;31.77;;;6.80;99.90;;;;;;5092495;28;20049;-77
2022/12/22 07:12:04;;;;;;;434.77;29.10;;;6.60;99.90;;;;;;5075708;28;20071;-77
2022/12/22 07:14:29;;;;;;;463.13;31.38;;;6.80;99.90;;;;;;5093605;28;20450;-77
2022/12/22 07:16:55;;;;;;;462.10;31.45;;;6.60;99.90;;;;;;5093531;28;20101;-77
2022/12/22 07:19:21;;;;;;;442.30;32.38;;;7.10;99.90;;;;;;5075349;28;20476;-77
2022/12/22 07:21:47;;;;;;;303.92;28.08;;;6.40;99.90;;;;;;5092158;28;20047;-77
2022/12/22 07:24:15;;;;;;;419.77;32.22;;;6.90;99.90;;;;;;5092274;28;20149;-77
2022/12/22 07:26:40;;;;;;;466.92;33.80;;;6.70;99.90;;;;;;5093625;28;20438;-77
2022/12/22 07:29:06;;;;;;;214.05;25.98;;;6.60;99.90;;;;;;5093222;28;20051;-77
2022/12/22 07:31:32;;;;;;;484.10;32.33;;;6.70;99.90;;;;;;5091363;28;20160;-77
2022/12/22 07:33:58;;;;;;;371.42;27.85;;;6.50;99.90;;;;;;5092099;28;20071;-77
2022/12/22 07:36:23;;;;;;;448.60;30.63;;;6.40;99.90;;;;;;5091958;28;20056;-77
2022/12/22 07:38:50;;;;;;;509.35;31.15;;;6.40;99.90;;;;;;5092036;28;20390;-77
2022/12/22 07:44:03;;;;;;;300.08;23.77;;;6.30;99.90;;;;;;5085138;28;20048;-77
2022/12/22 07:46:31;;;;;;;358.80;22.88;;;6.60;99.90;;;;;;5089665;28;20055;-77
2022/12/22 07:51:41;;;;;;;504.00;29.20;;;6.40;99.90;;;;;;5091130;28;20098;-77
2022/12/22 07:54:08;;;;;;;;;;;6.60;99.90;;;;;;5092121;28;20088;-77
2022/12/22 07:56:34;;;;;;;304.77;20.42;;;6.60;99.90;;;;;;5107596;28;19985;-77
2022/12/22 07:59:00;;;;;;;292.35;20.17;;;6.50;99.90;;;;;;5091563;28;20052;-77
2022/12/22 08:01:27;;;;;;;474.60;24.95;;;6.60;99.90;;;;;;5087886;28;20373;-77
2022/12/22 08:03:52;;;;;;;242.77;17.42;;;6.20;99.90;;;;;;5091464;28;20051;-79
2022/12/22 08:06:18;;;;;;;374.80;22.92;;;6.00;99.90;;;;;;5092061;28;20044;-78
2022/12/22 08:08:44;;;;;;;470.35;26.00;;;6.80;99.90;;;;;;5092026;28;20428;-76
2022/12/22 08:11:10;;;;;;;413.88;25.58;;;6.50;99.90;;;;;;5090557;28;20370;-78
2022/12/22 08:13:36;;;;;;;473.95;32.00;;;6.70;99.90;;;;;;5107850;28;20110;-77
2022/12/22 08:16:07;;;;;;;335.42;22.20;;;6.40;99.90;;;;;;5090517;28;20458;-78
2022/12/22 08:18:33;;;;;;;323.13;21.65;;;6.40;99.90;;;;;;5091994;28;20044;-78
2022/12/22 08:20:59;;;;;;;303.08;22.15;;;6.50;99.90;;;;;;5090391;28;20055;-78
2022/12/22 08:23:25;;;;;;;296.50;23.25;;;7.40;99.90;;;;;;5090415;28;20043;-78
2022/12/22 08:25:56;;;;;;;313.30;25.67;;;6.30;99.90;;;;;;5090384;28;20055;-78
2022/12/22 08:28:22;;;;;;;251.23;21.67;;;6.60;99.90;;;;;;5091582;28;20381;-78
2022/12/22 08:30:48;;;;;;;;;;;6.70;99.90;;;;;;5090548;28;20513;-78
2022/12/22 08:33:14;;;;;;;217.30;19.80;;;6.60;99.90;;;;;;5073907;28;19924;-78
2022/12/22 08:35:40;;;;;;;103.43;17.27;;;6.50;99.90;;;;;;5090144;28;20044;-79
2022/12/22 08:38:07;;;;;;;114.90;17.08;;;7.10;99.90;;;;;;5090605;28;20044;-79
2022/12/22 08:40:33;;;;;;;150.55;19.17;;;6.80;99.90;;;;;;5091638;28;20036;-79
2022/12/22 08:43:03;;;;;;;78.03;16.38;;;6.40;99.90;;;;;;5091477;28;20047;-78
2022/12/22 08:45:29;;;;;;;93.25;17.20;;;6.80;99.90;;;;;;5091814;28;20059;-78
2022/12/22 08:47:55;;;;;;;88.63;16.33;;;6.70;99.90;;;;;;5090252;28;20337;-78
2022/12/22 08:50:21;;;;;;;89.30;17.13;;;6.60;99.90;;;;;;5089870;28;20043;-77
2022/12/22 08:52:46;;;;;;;69.80;14.98;;;6.80;99.90;;;;;;5089793;28;20043;-77
2022/12/22 08:55:13;;;;;;;72.18;14.88;;;6.90;99.90;;;;;;5083707;28;20074;-77
2022/12/22 08:57:38;;;;;;;;;;;6.80;99.90;;;;;;5089974;28;20044;-78
2022/12/22 09:00:07;;;;;;;56.70;14.40;;;6.70;99.90;;;;;;5084855;28;19931;-76
2022/12/22 09:02:33;;;;;;;66.68;15.43;;;6.80;99.90;;;;;;5065053;28;20075;-78
2022/12/22 09:04:59;;;;;;;61.70;15.68;;;6.70;99.90;;;;;;5090767;28;20114;-79
2022/12/22 09:07:25;;;;;;;65.20;15.15;;;6.80;99.90;;;;;;5091449;28;20052;-78
2022/12/22 09:09:50;;;;;;;62.80;15.50;;;6.50;99.90;;;;;;5092333;28;20072;-78
2022/12/22 09:12:16;;;;;;;51.95;14.75;;;6.80;99.90;;;;;;5099371;28;20480;-75
2022/12/22 09:14:42;;;;;;;53.03;15.15;;;6.70;99.90;;;;;;5089990;28;20036;-78
2022/12/22 09:17:08;;;;;;;58.15;15.18;;;6.50;99.90;;;;;;5090969;28;20048;-77
2022/12/22 09:19:34;;;;;;;49.78;14.40;;;6.80;99.90;;;;;;5090906;28;20046;-77
2022/12/22 09:21:59;;;;;;;35.60;13.18;;;6.50;99.90;;;;;;5089974;28;20048;-78
2022/12/22 09:24:25;;;;;;;50.75;13.98;;;6.90;99.90;;;;;;5073230;28;20051;-78
2022/12/22 09:26:51;;;;;;;35.25;13.40;;;7.20;99.90;;;;;;5089325;28;20048;-77
2022/12/22 09:29:17;;;;;;;42.65;13.00;;;5.90;99.90;;;;;;5089901;28;20066;-78
2022/12/22 09:31:43;;;;;;;38.33;13.45;;;6.80;99.90;;;;;;5090781;28;20060;-80
2022/12/22 09:34:09;;;;;;;32.95;12.70;;;6.80;99.90;;;;;;5083868;28;20159;-73
2022/12/22 09:36:34;;;;;;;33.25;11.32;;;6.80;99.90;;;;;;5087990;28;20480;-73
2022/12/22 09:39:05;;;;;;;31.83;11.60;;;7.10;99.90;;;;;;5089241;28;20512;-73
2022/12/22 09:41:50;;;;;;;30.90;11.43;;;7.10;99.90;;;;;;5085764;28;20113;-71
2022/12/22 09:44:37;;;;;;;24.70;9.10;;;7.20;99.90;;;;;;5090382;28;20137;-76
2022/12/22 09:47:13;;;;;;;32.22;10.13;;;7.40;99.90;;;;;;5089525;28;20051;-74
2022/12/22 09:49:39;;;;;;;22.35;10.70;;;7.00;99.90;;;;;;5088245;28;20127;-73
2022/12/22 09:52:05;;;;;;;21.02;9.35;;;7.70;99.90;;;;;;5089560;28;20130;-74
2022/12/22 09:54:31;;;;;;;30.20;9.77;;;7.30;99.90;;;;;;5087904;28;20475;-75
2022/12/22 09:56:57;;;;;;;27.13;8.23;;;7.70;99.90;;;;;;5089096;28;20141;-71
2022/12/22 09:59:26;;;;;;;27.92;9.07;;;7.50;99.90;;;;;;5089948;28;20052;-69
2022/12/22 10:02:31;;;;;;;21.48;7.68;;;7.80;99.90;;;;;;5091257;28;20416;-72
2022/12/22 10:05:37;;;;;;;22.23;7.90;;;7.60;99.90;;;;;;5092010;28;20048;-71
2022/12/22 10:08:12;;;;;;;19.10;7.38;;;7.70;99.90;;;;;;5096546;28;20551;-72
2022/12/22 10:10:39;;;;;;;20.98;7.45;;;7.40;99.90;;;;;;5094423;28;20052;-71
2022/12/22 10:13:04;;;;;;;25.63;7.38;;;7.70;99.90;;;;;;5097443;28;20051;-71
2022/12/22 10:15:39;;;;;;;25.48;7.03;;;7.90;99.90;;;;;;5074357;28;20093;-71
2022/12/22 10:18:25;;;;;;;20.63;6.65;;;7.60;99.90;;;;;;5074366;28;20105;-71
2022/12/22 10:21:13;;;;;;;23.83;6.93;;;7.90;99.90;;;;;;5074471;28;20082;-70
2022/12/22 10:23:46;;;;;;;17.80;5.88;;;8.30;99.90;;;;;;5074348;28;20091;-71
2022/12/22 10:26:23;;;;;;;20.38;6.13;;;7.30;99.90;;;;;;5074441;28;20048;-72
2022/12/22 10:29:00;;;;;;;19.38;5.90;;;7.90;99.90;;;;;;5074364;28;20086;-70
2022/12/22 10:31:25;;;;;;;;;;;7.40;99.90;;;;;;5074540;28;20052;-71
2022/12/22 10:33:54;;;;;;;16.33;5.88;;;7.20;99.90;;;;;;5074262;28;20014;-70
2022/12/22 10:36:25;;;;;;;13.00;4.85;;;7.50;99.90;;;;;;5074232;28;20089;-71
2022/12/22 10:38:56;;;;;;;13.55;5.65;;;7.60;99.90;;;;;;5074245;28;20044;-70
2022/12/22 10:41:26;;;;;;;17.67;5.95;;;7.40;99.90;;;;;;5074109;28;20481;-70
2022/12/22 10:43:58;;;;;;;16.42;5.82;;;7.50;99.90;;;;;;5073008;28;20087;-70
2022/12/22 10:46:53;;;;;;;21.40;5.70;;;7.10;99.90;;;;;;5072763;28;20488;-71
2022/12/22 10:49:21;;;;;;;20.10;5.72;;;7.40;99.90;;;;;;5088593;28;20561;-72
2022/12/22 10:52:17;;;;;;;14.98;5.75;;;7.20;99.90;;;;;;5073904;28;20049;-70
2022/12/22 10:54:45;;;;;;;13.70;5.47;;;7.70;99.90;;;;;;5073533;28;20049;-70
2022/12/22 10:57:13;;;;;;;17.35;5.28;;;7.80;99.90;;;;;;5073778;28;20052;-70
2022/12/22 10:59:54;;;;;;;15.80;5.15;;;7.50;99.90;;;;;;5073629;28;20075;-70
2022/12/22 11:02:19;;;;;;;17.70;5.28;;;8.10;99.90;;;;;;5073573;28;20044;-70
2022/12/22 11:04:46;;;;;;;15.80;5.15;;;8.10;99.90;;;;;;5073571;28;20503;-70
2022/12/22 11:07:11;;;;;;;11.40;4.38;;;7.60;99.90;;;;;;5073494;28;20442;-70
2022/12/22 11:09:37;;;;;;;17.15;5.13;;;8.10;99.90;;;;;;5073152;28;20091;-69
2022/12/22 11:12:36;;;;;;;20.58;4.32;;;7.90;99.90;;;;;;5072163;28;20555;-73
2022/12/22 11:15:16;;;;;;;14.35;4.03;;;8.50;99.90;;;;;;5072597;28;20060;-70
2022/12/22 11:18:06;;;;;;;15.25;5.07;;;8.10;99.90;;;;;;5073168;28;20056;-69
2022/12/22 11:20:52;;;;;;;23.85;4.30;;;8.00;99.90;;;;;;5073011;28;20462;-69
2022/12/22 11:23:50;;;;;;;22.20;4.33;;;8.30;99.90;;;;;;5072996;28;20046;-71
2022/12/22 11:26:25;;;;;;;;;;;8.40;99.90;;;;;;5072015;28;20627;-69
2022/12/22 11:29:24;;;;;;;15.98;3.42;;;8.40;99.90;;;;;;5073110;28;19978;-71
2022/12/22 11:32:25;;;;;;;14.73;3.25;;;8.70;99.90;;;;;;5106358;28;20059;-69
2022/12/22 11:35:28;;;;;;;22.85;3.45;;;8.90;99.90;;;;;;5113597;28;20059;-69
2022/12/22 11:37:58;;;;;;;18.58;2.78;;;8.50;99.90;;;;;;5109852;28;20098;-69
2022/12/22 11:40:39;;;;;;;13.35;2.45;;;8.70;99.90;;;;;;5092903;28;20055;-80
2022/12/22 11:43:17;;;;;;;19.48;3.75;;;8.30;99.90;;;;;;5089909;28;20055;-81
2022/12/22 11:45:51;;;;;;;14.50;2.97;;;8.80;99.90;;;;;;5096954;28;20444;-69
2022/12/22 11:48:48;;;;;;;15.38;3.53;;;8.80;99.90;;;;;;5095962;28;20054;-69
2022/12/22 11:51:22;;;;;;;20.70;3.50;;;8.70;99.90;;;;;;5098427;28;20502;-70
2022/12/22 11:54:15;;;;;;;16.63;2.95;;;8.80;99.90;;;;;;5101160;28;20044;-69
2022/12/22 11:56:46;;;;;;;16.10;3.88;;;9.00;99.90;;;;;;5097182;28;20119;-69
2022/12/22 11:59:37;;;;;;;13.40;3.28;;;8.80;99.90;;;;;;5107299;28;20143;-69
2022/12/22 12:02:24;;;;;;;15.80;3.72;;;9.10;99.90;;;;;;5111434;28;20047;-70
2022/12/22 12:05:18;;;;;;;20.70;4.15;;;9.00;99.90;;;;;;5111108;28;20126;-69
2022/12/22 12:07:52;;;;;;;19.05;3.65;;;8.80;99.90;;;;;;5112440;28;20055;-70
2022/12/22 12:10:23;;;;;;;13.57;3.25;;;8.80;99.90;;;;;;5112078;28;20087;-70
2022/12/22 12:13:11;;;;;;;20.30;3.95;;;8.90;99.90;;;;;;5112394;28;20134;-74
2022/12/22 12:16:03;;;;;;;16.17;3.80;;;9.30;99.90;;;;;;5111821;28;20131;-69
2022/12/22 12:18:55;;;;;;;13.38;3.88;;;8.90;99.90;;;;;;5110778;28;20070;-74
2022/12/22 12:22:00;;;;;;;19.83;3.97;;;9.00;99.90;;;;;;5112480;28;20081;-69
2022/12/22 12:24:35;;;;;;;16.67;4.00;;;9.20;99.90;;;;;;5109357;28;20055;-70
2022/12/22 12:27:32;;;;;;;17.35;4.85;;;9.00;99.90;;;;;;5112397;28;20051;-70
2022/12/22 12:30:24;;;;;;;17.95;4.07;;;9.00;99.90;;;;;;5112390;28;20101;-69
2022/12/22 12:33:07;;;;;;;16.80;3.97;;;8.60;99.90;;;;;;5111165;28;20052;-70
2022/12/22 12:36:00;;;;;;;14.77;3.35;;;8.90;99.90;;;;;;5112615;28;20054;-69
2022/12/22 12:38:32;;;;;;;20.90;3.42;;;8.80;99.90;;;;;;5112585;28;20542;-70
2022/12/22 12:41:13;;;;;;;17.60;3.20;;;8.90;99.90;;;;;;5112337;28;20476;-69
2022/12/22 12:43:40;;;;;;;18.13;3.55;;;8.80;99.90;;;;;;5112552;28;20049;-69
2022/12/22 12:46:43;;;;;;;16.30;3.42;;;8.60;99.90;;;;;;5112465;28;20083;-69
2022/12/22 12:49:38;;;;;;;15.35;3.38;;;9.20;99.90;;;;;;5112149;28;20189;-69
2022/12/22 12:52:03;;;;;;;14.65;3.45;;;9.20;99.90;;;;;;5091912;28;20094;-69
2022/12/22 12:54:29;;;;;;;16.58;3.33;;;8.90;99.90;;;;;;5111405;28;20098;-69
2022/12/22 12:56:59;;;;;;;16.13;3.38;;;9.10;99.90;;;;;;5112261;28;20642;-69
2022/12/22 12:59:40;;;;;;;14.82;3.75;;;8.80;99.90;;;;;;5112304;28;20096;-69
2022/12/22 13:02:31;;;;;;;21.08;3.95;;;8.90;99.90;;;;;;5112233;28;20083;-70
2022/12/22 13:05:10;;;;;;;25.33;3.95;;;8.50;99.90;;;;;;5112177;28;20054;-69
2022/12/22 13:08:04;;;;;;;15.73;3.20;;;8.80;99.90;;;;;;5111996;28;20089;-69
2022/12/22 13:10:32;;;;;;;19.33;4.03;;;8.70;99.90;;;;;;5112071;28;20075;-68
2022/12/22 13:12:58;;;;;;;22.45;3.63;;;8.40;99.90;;;;;;5112172;28;20044;-69
2022/12/22 13:15:41;;;;;;;22.05;4.13;;;8.30;99.90;;;;;;5112093;28;20093;-68
2022/12/22 13:18:24;;;;;;;19.55;4.32;;;8.40;99.90;;;;;;5111882;28;20083;-73
2022/12/22 13:21:16;;;;;;;18.85;3.60;;;8.60;99.90;;;;;;5110759;28;20097;-70
2022/12/22 13:24:04;;;;;;;13.02;3.85;;;8.30;99.90;;;;;;5111865;28;20048;-69
2022/12/22 13:26:35;;;;;;;19.60;3.92;;;9.60;99.90;;;;;;5111318;28;20110;-73
2022/12/22 13:29:35;;;;;;;22.90;3.42;;;8.60;99.90;;;;;;5111947;28;20039;-71
2022/12/22 13:32:19;;;;;;;20.50;3.83;;;8.50;99.90;;;;;;5111452;28;20063;-72
2022/12/22 13:34:47;;;;;;;19.52;3.55;;;8.60;99.90;;;;;;5111975;28;20071;-75
2022/12/22 13:37:26;;;;;;;26.30;4.50;;;8.60;99.90;;;;;;5111789;28;20043;-72
2022/12/22 13:40:13;;;;;;;20.13;4.43;;;8.70;99.90;;;;;;5114229;28;20078;-72
2022/12/22 13:42:46;;;;;;;24.55;4.38;;;8.60;99.90;;;;;;5112409;28;20054;-72
2022/12/22 13:45:18;;;;;;;21.77;4.43;;;8.50;99.90;;;;;;5084232;28;20098;-72
2022/12/22 13:47:46;;;;;;;15.52;5.13;;;8.70;99.90;;;;;;5094632;28;20484;-71
2022/12/22 13:50:22;;;;;;;20.90;4.75;;;8.60;99.90;;;;;;5095129;28;20036;-71
2022/12/22 13:52:49;;;;;;;19.13;4.97;;;8.50;99.90;;;;;;5109276;28;20052;-71
2022/12/22 13:55:19;;;;;;;19.08;4.90;;;8.60;99.90;;;;;;5099374;28;20816;-72
2022/12/22 13:57:45;;;;;;;25.08;4.45;;;8.80;99.90;;;;;;5095151;28;20048;-73
2022/12/22 14:00:19;;;;;;;20.00;4.30;;;8.30;99.90;;;;;;5095061;28;20047;-72
2022/12/22 14:02:45;;;;;;;21.27;5.07;;;8.50;99.90;;;;;;5094774;28;20056;-73
2022/12/22 14:05:12;;;;;;;19.90;4.18;;;8.50;99.90;;;;;;5095133;28;20048;-72
2022/12/22 14:07:38;;;;;;;12.40;4.00;;;9.40;99.90;;;;;;5095012;28;20103;-72
2022/12/22 14:10:04;;;;;;;18.95;3.70;;;8.70;99.90;;;;;;5076904;28;20052;-72
2022/12/22 14:12:38;;;;;;;18.92;3.90;;;8.60;99.90;;;;;;5094976;28;20125;-75
2022/12/22 14:15:13;;;;;;;21.02;4.03;;;8.70;99.90;;;;;;5094938;28;20121;-72
2022/12/22 14:17:39;;;;;;;16.40;3.42;;;8.30;99.90;;;;;;5094652;28;20365;-72
2022/12/22 14:20:18;;;;;;;15.35;4.60;;;8.80;99.90;;;;;;5093734;28;20051;-75
2022/12/22 14:22:52;;;;;;;21.23;3.88;;;8.80;99.90;;;;;;5094830;28;20048;-73
2022/12/22 14:25:22;;;;;;;26.02;4.43;;;8.70;99.90;;;;;;5094715;28;20392;-72
2022/12/22 14:27:51;;;;;;;17.05;3.13;;;8.30;99.90;;;;;;5093780;28;20051;-72
2022/12/22 14:30:40;;;;;;;21.48;4.15;;;8.60;99.90;;;;;;5094298;28;20194;-80
2022/12/22 14:33:27;;;;;;;19.45;3.10;;;8.80;99.90;;;;;;5076699;28;20487;-74
2022/12/22 14:36:17;;;;;;;15.57;4.10;;;8.60;99.90;;;;;;5094593;28;20040;-73
2022/12/22 14:38:48;;;;;;;14.75;2.60;;;8.40;99.90;;;;;;5093393;28;20106;-73
2022/12/22 14:41:42;;;;;;;15.95;2.80;;;8.70;99.90;;;;;;5094384;28;20063;-72
2022/12/22 14:44:15;;;;;;;19.35;3.22;;;8.40;99.90;;;;;;5094256;28;20113;-72
2022/12/22 14:46:42;;;;;;;16.65;2.88;;;8.70;99.90;;;;;;5093912;28;20086;-73
2022/12/22 14:49:17;;;;;;;14.93;2.63;;;8.80;99.90;;;;;;5094154;28;20055;-73
2022/12/22 14:51:51;;;;;;;13.02;2.95;;;8.90;99.90;;;;;;5092276;28;20059;-72
2022/12/22 14:54:22;;;;;;;21.73;3.45;;;8.50;99.90;;;;;;5094201;28;20048;-74
2022/12/22 14:56:50;;;;;;;17.45;2.70;;;8.70;99.90;;;;;;5094299;28;20055;-73
2022/12/22 14:59:27;;;;;;;16.88;2.83;;;8.60;99.90;;;;;;5093892;28;20055;-74
2022/12/22 15:02:01;;;;;;;16.98;2.83;;;8.60;99.90;;;;;;5093934;28;20048;-73
2022/12/22 15:04:27;;;;;;;17.85;3.03;;;8.30;99.90;;;;;;5093954;28;20060;-72
2022/12/22 15:07:14;;;;;;;19.67;3.38;;;8.50;99.90;;;;;;5093811;28;20075;-73
2022/12/22 15:09:39;;;;;;;10.32;2.85;;;8.40;99.90;;;;;;5092482;28;20075;-72
2022/12/22 15:12:14;;;;;;;13.77;2.58;;;8.30;99.90;;;;;;5092651;28;20072;-72
2022/12/22 15:14:40;;;;;;;20.10;2.90;;;8.30;99.90;;;;;;5092181;28;20047;-72
2022/12/22 15:17:22;;;;;;;23.65;3.00;;;8.70;99.90;;;;;;5092994;28;20067;-74
2022/12/22 15:19:48;;;;;;;16.83;3.00;;;8.40;99.90;;;;;;5092721;28;20141;-72
2022/12/22 15:22:14;;;;;;;20.63;3.65;;;8.90;99.90;;;;;;5093490;28;20146;-73
2022/12/22 15:24:39;;;;;;;15.98;2.70;;;8.40;99.90;;;;;;5093467;28;20044;-72
2022/12/22 15:27:05;;;;;;;15.48;2.65;;;8.30;99.90;;;;;;5093329;28;20066;-73
2022/12/22 15:29:31;;;;;;;22.40;2.75;;;8.30;99.90;;;;;;5092002;28;20094;-72
2022/12/22 15:31:56;;;;;;;12.60;2.90;;;8.10;99.90;;;;;;5093397;28;20066;-73
2022/12/22 15:34:25;;;;;;;11.88;2.70;;;8.60;99.90;;;;;;5093315;28;20446;-73
2022/12/22 15:36:51;;;;;;;15.10;2.70;;;8.20;99.90;;;;;;5083270;28;20051;-72
2022/12/22 15:39:18;;;;;;;14.40;3.03;;;8.70;99.90;;;;;;5074354;28;20079;-73
2022/12/22 15:41:45;;;;;;;21.52;2.67;;;8.30;99.90;;;;;;5088509;28;20052;-70
2022/12/22 15:44:10;;;;;;;;;;;8.30;99.90;;;;;;5071762;28;20062;-70
2022/12/22 15:46:38;;;;;;;19.95;3.03;;;8.10;99.90;;;;;;5092382;28;19924;-71
2022/12/22 15:49:11;;;;;;;14.38;3.28;;;8.20;99.90;;;;;;5090598;28;20062;-71
2022/12/22 15:51:37;;;;;;;15.30;3.03;;;8.50;99.90;;;;;;5085562;28;20463;-71
2022/12/22 15:54:03;;;;;;;14.07;3.65;;;8.30;99.90;;;;;;5087148;28;20080;-71
2022/12/22 15:56:32;;;;;;;6.75;2.97;;;8.20;99.90;;;;;;5090460;28;20048;-73
2022/12/22 15:58:59;;;;;;;12.50;3.08;;;8.20;99.90;;;;;;5089108;28;20035;-72
2022/12/22 16:01:24;;;;;;;14.80;2.85;;;8.30;99.90;;;;;;5089849;28;20048;-71
2022/12/22 16:03:50;;;;;;;9.38;3.38;;;8.30;99.90;;;;;;5091030;28;20097;-72
2022/12/22 16:06:18;;;;;;;9.77;3.65;;;8.30;99.90;;;;;;5092212;28;20131;-70
2022/12/22 16:08:51;;;;;;;12.27;3.13;;;8.30;99.90;;;;;;5092709;28;20044;-70
2022/12/22 16:11:17;;;;;;;14.95;3.80;;;8.10;99.90;;;;;;5092544;28;20052;-70
2022/12/22 16:13:44;;;;;;;9.40;4.70;;;8.40;99.90;;;;;;5092331;28;20104;-70
2022/12/22 16:16:10;;;;;;;21.45;7.13;;;8.00;99.90;;;;;;5092434;28;20050;-71
2022/12/22 16:18:36;;;;;;;18.52;7.40;;;9.00;99.90;;;;;;5092457;28;20048;-70
2022/12/22 16:21:15;;;;;;;20.50;7.95;;;9.00;99.90;;;;;;5092633;28;20361;-73
2022/12/22 16:23:46;;;;;;;17.50;6.13;;;8.10;99.90;;;;;;5091643;28;20054;-70
2022/12/22 16:26:16;;;;;;;17.60;6.70;;;8.40;99.90;;;;;;5092441;28;20487;-70
2022/12/22 16:28:42;;;;;;;21.13;8.80;;;8.00;99.90;;;;;;5091833;28;20063;-72
2022/12/22 16:31:17;;;;;;;21.98;10.02;;;8.20;99.90;;;;;;5091625;28;20143;-71
2022/12/22 16:33:44;;;;;;;31.90;12.88;;;8.10;99.90;;;;;;5092340;28;20047;-69
2022/12/22 16:36:10;;;;;;;27.45;14.23;;;8.20;99.90;;;;;;5092023;28;20105;-69
2022/12/22 16:38:35;;;;;;;30.30;14.90;;;8.00;99.90;;;;;;5091167;28;20086;-69
2022/12/22 16:41:02;;;;;;;29.30;14.48;;;7.50;99.90;;;;;;5091876;28;20464;-69
2022/12/22 16:43:35;;;;;;;34.20;14.77;;;8.20;99.90;;;;;;5092074;28;20055;-70
2022/12/22 16:46:10;;;;;;;26.40;14.30;;;8.00;99.90;;;;;;5092129;28;20040;-70